AHK783 ZSPD-VHHH
Flight info
| Callsign | AHK783 |
|---|---|
| Flight time | 2h 8m |
| Altitude | 39100 |
| Route | HSN91D HSN W13 TOGUG/K0876S1220 W13 BEGMO M503 TOLAK/N0475F401 M503 LELIM/N0497F300 V591 ABBEY |
| Aircraft | A333/H-SDE3GHIJ2J3J5M1RVWXY/LB2D1 |
Departure
| Time | 2026-05-07 12:51 |
|---|---|
| Airport | Shanghai Pudong International Airport (ZSPD) |
Arrival
| Time | 2026-05-07 15:00 |
|---|---|
| Airport | Hong Kong International Airport (VHHH) |
| Time | Latitude | Longitude | Altitude | Speed | Heading |
|---|---|---|---|---|---|
| 2026-05-07 12:04 | 31.12721 | 121.78951 | 27 ft | 0 kts | 162° |
| 2026-05-07 12:38 | 31.12728 | 121.78948 | 27 ft | 4 kts | 151° |
| 2026-05-07 12:39 | 31.12738 | 121.78931 | 27 ft | 4 kts | 75° |
| 2026-05-07 12:39 | 31.12731 | 121.78904 | 27 ft | 1 kts | 72° |
| 2026-05-07 12:39 | 31.12730 | 121.78903 | 27 ft | 1 kts | 72° |
| 2026-05-07 12:46 | 31.12731 | 121.78906 | 27 ft | 2 kts | 72° |
| 2026-05-07 12:46 | 31.12739 | 121.78934 | 27 ft | 4 kts | 72° |
| 2026-05-07 12:46 | 31.12750 | 121.78975 | 27 ft | 6 kts | 72° |
| 2026-05-07 12:47 | 31.12762 | 121.79029 | 26 ft | 7 kts | 84° |
| 2026-05-07 12:47 | 31.12750 | 121.79048 | 26 ft | 3 kts | 142° |
| 2026-05-07 12:47 | 31.12724 | 121.79061 | 26 ft | 7 kts | 160° |
| 2026-05-07 12:47 | 31.12671 | 121.79081 | 26 ft | 9 kts | 163° |
| 2026-05-07 12:48 | 31.12608 | 121.79104 | 26 ft | 10 kts | 162° |
| 2026-05-07 12:48 | 31.12538 | 121.79133 | 26 ft | 10 kts | 150° |
| 2026-05-07 12:48 | 31.12518 | 121.79200 | 27 ft | 7 kts | 74° |
| 2026-05-07 12:48 | 31.12536 | 121.79262 | 28 ft | 9 kts | 72° |
| 2026-05-07 12:49 | 31.12560 | 121.79348 | 31 ft | 12 kts | 71° |
| 2026-05-07 12:49 | 31.12587 | 121.79443 | 30 ft | 13 kts | 71° |
| 2026-05-07 12:49 | 31.12614 | 121.79545 | 30 ft | 13 kts | 73° |
| 2026-05-07 12:49 | 31.12643 | 121.79648 | 26 ft | 14 kts | 71° |
| 2026-05-07 12:50 | 31.12674 | 121.79757 | 27 ft | 14 kts | 72° |
| 2026-05-07 12:50 | 31.12704 | 121.79850 | 27 ft | 12 kts | 56° |
| 2026-05-07 12:50 | 31.12778 | 121.79862 | 32 ft | 12 kts | 341° |
| 2026-05-07 12:50 | 31.12899 | 121.79816 | 28 ft | 35 kts | 342° |
| 2026-05-07 12:51 | 31.13330 | 121.79654 | 29 ft | 94 kts | 342° |
| 2026-05-07 12:51 | 31.14131 | 121.79352 | 27 ft | 146 kts | 342° |
| 2026-05-07 12:51 | 31.15218 | 121.78941 | 322 ft | 173 kts | 343° |
| 2026-05-07 12:51 | 31.16382 | 121.78513 | 1112 ft | 175 kts | 346° |
| 2026-05-07 12:52 | 31.17534 | 121.78073 | 2056 ft | 172 kts | 344° |
| 2026-05-07 12:52 | 31.18279 | 121.77765 | 2597 ft | 170 kts | 343° |
| 2026-05-07 12:52 | 31.19387 | 121.77264 | 3292 ft | 175 kts | 339° |
| 2026-05-07 12:52 | 31.20588 | 121.76735 | 3716 ft | 195 kts | 341° |
| 2026-05-07 12:53 | 31.21948 | 121.76179 | 4084 ft | 219 kts | 341° |
| 2026-05-07 12:53 | 31.23469 | 121.75601 | 4523 ft | 239 kts | 341° |
| 2026-05-07 12:53 | 31.25101 | 121.74981 | 5049 ft | 253 kts | 339° |
| 2026-05-07 12:53 | 31.26802 | 121.74295 | 5677 ft | 263 kts | 339° |
| 2026-05-07 12:54 | 31.28543 | 121.73565 | 6394 ft | 269 kts | 337° |
| 2026-05-07 12:54 | 31.30316 | 121.72801 | 7136 ft | 275 kts | 339° |
| 2026-05-07 12:54 | 31.32203 | 121.72404 | 8012 ft | 278 kts | 360° |
| 2026-05-07 12:54 | 31.34040 | 121.73065 | 8971 ft | 285 kts | 29° |
| 2026-05-07 12:55 | 31.35398 | 121.74824 | 9518 ft | 304 kts | 64° |
| 2026-05-07 12:55 | 31.35933 | 121.77200 | 10283 ft | 307 kts | 80° |
| 2026-05-07 12:55 | 31.36238 | 121.79688 | 10941 ft | 315 kts | 81° |
| 2026-05-07 12:55 | 31.36567 | 121.82305 | 11232 ft | 335 kts | 80° |
| 2026-05-07 12:56 | 31.36959 | 121.85067 | 11517 ft | 354 kts | 78° |
| 2026-05-07 12:56 | 31.37373 | 121.87985 | 11791 ft | 373 kts | 84° |
| 2026-05-07 12:56 | 31.37246 | 121.91087 | 12057 ft | 392 kts | 103° |
| 2026-05-07 12:56 | 31.36183 | 121.94051 | 12482 ft | 400 kts | 126° |
| 2026-05-07 12:57 | 31.34259 | 121.96391 | 13043 ft | 401 kts | 148° |
| 2026-05-07 12:57 | 31.31758 | 121.97788 | 13650 ft | 398 kts | 168° |
| 2026-05-07 12:57 | 31.29043 | 121.98423 | 14234 ft | 399 kts | 174° |
| 2026-05-07 12:57 | 31.26295 | 121.98979 | 14816 ft | 402 kts | 174° |
| 2026-05-07 12:58 | 31.23535 | 121.99612 | 15401 ft | 406 kts | 173° |
| 2026-05-07 12:58 | 31.20763 | 122.00313 | 15959 ft | 410 kts | 172° |
| 2026-05-07 12:58 | 31.17973 | 122.01062 | 16525 ft | 413 kts | 172° |
| 2026-05-07 12:58 | 31.15199 | 122.01829 | 17055 ft | 416 kts | 171° |
| 2026-05-07 12:59 | 31.12363 | 122.02627 | 17597 ft | 419 kts | 171° |
| 2026-05-07 12:59 | 31.09516 | 122.03434 | 18111 ft | 423 kts | 171° |
| 2026-05-07 12:59 | 31.06652 | 122.04249 | 18578 ft | 426 kts | 171° |
| 2026-05-07 12:59 | 31.03763 | 122.05073 | 18995 ft | 429 kts | 171° |
| 2026-05-07 13:00 | 31.00851 | 122.05904 | 19415 ft | 432 kts | 172° |
| 2026-05-07 13:00 | 30.97923 | 122.06740 | 19838 ft | 435 kts | 172° |
| 2026-05-07 13:00 | 30.94966 | 122.07583 | 20224 ft | 438 kts | 172° |
| 2026-05-07 13:00 | 30.91989 | 122.08432 | 20574 ft | 443 kts | 172° |
| 2026-05-07 13:01 | 30.88985 | 122.09289 | 20947 ft | 446 kts | 172° |
| 2026-05-07 13:01 | 30.85963 | 122.10150 | 21350 ft | 448 kts | 172° |
| 2026-05-07 13:01 | 30.82927 | 122.11015 | 21768 ft | 450 kts | 172° |
| 2026-05-07 13:01 | 30.79876 | 122.11884 | 22172 ft | 453 kts | 172° |
| 2026-05-07 13:02 | 30.76844 | 122.12746 | 22568 ft | 455 kts | 172° |
| 2026-05-07 13:02 | 30.73756 | 122.13624 | 22966 ft | 458 kts | 172° |
| 2026-05-07 13:02 | 30.70660 | 122.14503 | 23362 ft | 460 kts | 172° |
| 2026-05-07 13:02 | 30.67532 | 122.15391 | 23726 ft | 463 kts | 172° |
| 2026-05-07 13:03 | 30.64393 | 122.16281 | 24027 ft | 465 kts | 172° |
| 2026-05-07 13:03 | 30.61243 | 122.17174 | 24369 ft | 467 kts | 172° |
| 2026-05-07 13:03 | 30.58079 | 122.18070 | 24689 ft | 469 kts | 172° |
| 2026-05-07 13:03 | 30.54897 | 122.18971 | 25019 ft | 472 kts | 172° |
| 2026-05-07 13:04 | 30.51701 | 122.19875 | 25343 ft | 474 kts | 172° |
| 2026-05-07 13:04 | 30.48489 | 122.20783 | 25654 ft | 476 kts | 172° |
| 2026-05-07 13:04 | 30.45255 | 122.21697 | 25989 ft | 479 kts | 172° |
| 2026-05-07 13:04 | 30.42014 | 122.22611 | 26313 ft | 481 kts | 172° |
| 2026-05-07 13:05 | 30.38752 | 122.23532 | 26610 ft | 483 kts | 173° |
| 2026-05-07 13:05 | 30.35475 | 122.24455 | 26882 ft | 487 kts | 173° |
| 2026-05-07 13:05 | 30.32217 | 122.25373 | 27189 ft | 489 kts | 173° |
| 2026-05-07 13:05 | 30.28897 | 122.26308 | 27503 ft | 492 kts | 173° |
| 2026-05-07 13:06 | 30.25561 | 122.27246 | 27805 ft | 494 kts | 173° |
| 2026-05-07 13:06 | 30.22212 | 122.28189 | 28119 ft | 497 kts | 173° |
| 2026-05-07 13:06 | 30.18836 | 122.29137 | 28416 ft | 499 kts | 173° |
| 2026-05-07 13:06 | 30.15456 | 122.30086 | 28705 ft | 501 kts | 173° |
| 2026-05-07 13:07 | 30.12060 | 122.31038 | 28958 ft | 504 kts | 173° |
| 2026-05-07 13:07 | 30.08635 | 122.31997 | 29167 ft | 508 kts | 173° |
| 2026-05-07 13:07 | 30.05188 | 122.32963 | 29420 ft | 511 kts | 173° |
| 2026-05-07 13:07 | 30.01727 | 122.33932 | 29732 ft | 512 kts | 173° |
| 2026-05-07 13:08 | 29.98271 | 122.34900 | 30121 ft | 511 kts | 173° |
| 2026-05-07 13:08 | 29.94821 | 122.35867 | 30540 ft | 509 kts | 173° |
| 2026-05-07 13:08 | 29.91375 | 122.36793 | 30920 ft | 506 kts | 174° |
| 2026-05-07 13:08 | 29.87939 | 122.37634 | 31271 ft | 505 kts | 175° |
| 2026-05-07 13:09 | 29.84498 | 122.38433 | 31568 ft | 505 kts | 176° |
| 2026-05-07 13:09 | 29.81048 | 122.39217 | 31869 ft | 505 kts | 176° |
| 2026-05-07 13:09 | 29.77609 | 122.39997 | 32245 ft | 504 kts | 176° |
| 2026-05-07 13:09 | 29.74169 | 122.40783 | 32625 ft | 503 kts | 177° |
| 2026-05-07 13:10 | 29.70779 | 122.41564 | 32985 ft | 502 kts | 177° |
| 2026-05-07 13:10 | 29.67353 | 122.42357 | 33336 ft | 502 kts | 177° |
| 2026-05-07 13:10 | 29.63929 | 122.43152 | 33698 ft | 501 kts | 177° |
| 2026-05-07 13:10 | 29.60515 | 122.43947 | 34033 ft | 500 kts | 177° |
| 2026-05-07 13:11 | 29.57107 | 122.44740 | 34307 ft | 500 kts | 177° |
| 2026-05-07 13:11 | 29.53700 | 122.45532 | 34553 ft | 500 kts | 177° |
| 2026-05-07 13:11 | 29.50287 | 122.46323 | 34814 ft | 500 kts | 177° |
| 2026-05-07 13:11 | 29.46874 | 122.47115 | 35059 ft | 501 kts | 177° |
| 2026-05-07 13:12 | 29.43460 | 122.47906 | 35306 ft | 501 kts | 177° |
| 2026-05-07 13:12 | 29.40042 | 122.48698 | 35553 ft | 501 kts | 177° |
| 2026-05-07 13:12 | 29.36632 | 122.49488 | 35787 ft | 501 kts | 177° |
| 2026-05-07 13:12 | 29.33213 | 122.50278 | 35997 ft | 501 kts | 177° |
| 2026-05-07 13:13 | 29.29799 | 122.51068 | 36223 ft | 501 kts | 177° |
| 2026-05-07 13:13 | 29.26373 | 122.51790 | 36438 ft | 497 kts | 181° |
| 2026-05-07 13:13 | 29.22964 | 122.52059 | 36650 ft | 486 kts | 189° |
| 2026-05-07 13:13 | 29.19633 | 122.51768 | 36855 ft | 475 kts | 199° |
| 2026-05-07 13:14 | 29.16460 | 122.50905 | 37074 ft | 463 kts | 207° |
| 2026-05-07 13:14 | 29.13509 | 122.49540 | 37275 ft | 454 kts | 213° |
| 2026-05-07 13:14 | 29.10666 | 122.47977 | 37461 ft | 452 kts | 216° |
| 2026-05-07 13:14 | 29.07875 | 122.46338 | 37710 ft | 450 kts | 216° |
| 2026-05-07 13:15 | 29.05108 | 122.44670 | 37916 ft | 449 kts | 216° |
| 2026-05-07 13:15 | 29.02344 | 122.42997 | 38120 ft | 450 kts | 216° |
| 2026-05-07 13:15 | 28.99576 | 122.41331 | 38322 ft | 450 kts | 216° |
| 2026-05-07 13:15 | 28.96802 | 122.39675 | 38514 ft | 450 kts | 216° |
| 2026-05-07 13:16 | 28.94017 | 122.38024 | 38710 ft | 450 kts | 216° |
| 2026-05-07 13:16 | 28.91232 | 122.36384 | 38866 ft | 450 kts | 216° |
| 2026-05-07 13:16 | 28.88479 | 122.34767 | 38976 ft | 450 kts | 216° |
| 2026-05-07 13:16 | 28.85691 | 122.33132 | 39082 ft | 451 kts | 216° |
| 2026-05-07 13:17 | 28.80125 | 122.29876 | 39084 ft | 448 kts | 216° |
| 2026-05-07 13:17 | 28.74586 | 122.26636 | 39090 ft | 447 kts | 216° |
| 2026-05-07 13:18 | 28.69049 | 122.23396 | 39085 ft | 447 kts | 216° |
| 2026-05-07 13:18 | 28.63518 | 122.20165 | 39084 ft | 447 kts | 216° |
| 2026-05-07 13:19 | 28.57984 | 122.16936 | 39088 ft | 447 kts | 216° |
| 2026-05-07 13:19 | 28.52454 | 122.13713 | 39085 ft | 447 kts | 216° |
| 2026-05-07 13:20 | 28.46956 | 122.10513 | 39086 ft | 447 kts | 216° |
| 2026-05-07 13:20 | 28.41410 | 122.07289 | 39090 ft | 448 kts | 216° |
| 2026-05-07 13:21 | 28.35847 | 122.04058 | 39082 ft | 449 kts | 216° |
| 2026-05-07 13:21 | 28.30288 | 122.00835 | 39082 ft | 449 kts | 216° |
| 2026-05-07 13:22 | 28.24718 | 121.97609 | 39079 ft | 449 kts | 216° |
| 2026-05-07 13:22 | 28.19169 | 121.94397 | 39090 ft | 452 kts | 216° |
| 2026-05-07 13:23 | 28.13564 | 121.91157 | 39073 ft | 453 kts | 216° |
| 2026-05-07 13:23 | 28.07950 | 121.87918 | 39086 ft | 453 kts | 216° |
| 2026-05-07 13:24 | 28.02330 | 121.84680 | 39055 ft | 453 kts | 215° |
| 2026-05-07 13:24 | 27.96732 | 121.81365 | 39075 ft | 455 kts | 217° |
| 2026-05-07 13:25 | 27.91174 | 121.77914 | 39077 ft | 455 kts | 217° |
| 2026-05-07 13:25 | 27.85628 | 121.74456 | 39078 ft | 455 kts | 217° |
| 2026-05-07 13:26 | 27.80106 | 121.71032 | 39051 ft | 455 kts | 217° |
| 2026-05-07 13:26 | 27.74541 | 121.67596 | 39074 ft | 456 kts | 217° |
| 2026-05-07 13:27 | 27.68964 | 121.64161 | 39075 ft | 456 kts | 217° |
| 2026-05-07 13:27 | 27.63386 | 121.60730 | 39074 ft | 456 kts | 217° |
| 2026-05-07 13:28 | 27.57842 | 121.57324 | 39049 ft | 456 kts | 216° |
| 2026-05-07 13:28 | 27.52253 | 121.53904 | 39069 ft | 458 kts | 216° |
| 2026-05-07 13:29 | 27.46654 | 121.50488 | 39072 ft | 457 kts | 216° |
| 2026-05-07 13:29 | 27.41065 | 121.47083 | 39073 ft | 456 kts | 216° |
| 2026-05-07 13:30 | 27.35484 | 121.43685 | 39068 ft | 456 kts | 216° |
| 2026-05-07 13:30 | 27.29900 | 121.40288 | 39071 ft | 456 kts | 216° |
| 2026-05-07 13:31 | 27.24318 | 121.36897 | 39066 ft | 456 kts | 216° |
| 2026-05-07 13:31 | 27.18735 | 121.33507 | 39067 ft | 456 kts | 216° |
| 2026-05-07 13:32 | 27.13149 | 121.30120 | 39060 ft | 456 kts | 216° |
| 2026-05-07 13:32 | 27.07593 | 121.26753 | 39070 ft | 457 kts | 216° |
| 2026-05-07 13:33 | 27.01992 | 121.23363 | 39063 ft | 457 kts | 216° |
| 2026-05-07 13:33 | 26.96404 | 121.19988 | 39063 ft | 456 kts | 216° |
| 2026-05-07 13:34 | 26.88023 | 121.14930 | 39070 ft | 456 kts | 216° |
| 2026-05-07 13:35 | 26.82426 | 121.11555 | 39067 ft | 457 kts | 216° |
| 2026-05-07 13:35 | 26.76824 | 121.08184 | 39066 ft | 457 kts | 216° |
| 2026-05-07 13:36 | 26.71213 | 121.04807 | 39067 ft | 457 kts | 216° |
| 2026-05-07 13:36 | 26.65640 | 121.01450 | 39059 ft | 458 kts | 216° |
| 2026-05-07 13:37 | 26.60025 | 120.98071 | 39063 ft | 458 kts | 216° |
| 2026-05-07 13:37 | 26.54400 | 120.94691 | 39064 ft | 458 kts | 216° |
| 2026-05-07 13:38 | 26.48795 | 120.91330 | 39059 ft | 457 kts | 216° |
| 2026-05-07 13:38 | 26.43194 | 120.87971 | 39056 ft | 457 kts | 216° |
| 2026-05-07 13:39 | 26.37570 | 120.84602 | 39062 ft | 459 kts | 216° |
| 2026-05-07 13:39 | 26.31939 | 120.81234 | 39059 ft | 459 kts | 216° |
| 2026-05-07 13:40 | 26.27256 | 120.78436 | 39062 ft | 459 kts | 216° |
| 2026-05-07 13:40 | 26.20711 | 120.74529 | 39057 ft | 460 kts | 215° |
| 2026-05-07 13:41 | 26.15046 | 120.71150 | 39063 ft | 462 kts | 215° |
| 2026-05-07 13:41 | 26.10327 | 120.68340 | 39063 ft | 463 kts | 215° |
| 2026-05-07 13:42 | 26.04638 | 120.64958 | 39058 ft | 463 kts | 215° |
| 2026-05-07 13:42 | 25.98954 | 120.61581 | 39051 ft | 463 kts | 215° |
| 2026-05-07 13:43 | 25.93261 | 120.58200 | 39063 ft | 465 kts | 215° |
| 2026-05-07 13:43 | 25.87548 | 120.54812 | 39063 ft | 465 kts | 215° |
| 2026-05-07 13:44 | 25.81832 | 120.51428 | 39062 ft | 465 kts | 215° |
| 2026-05-07 13:44 | 25.76113 | 120.48044 | 39045 ft | 465 kts | 215° |
| 2026-05-07 13:45 | 25.70391 | 120.44661 | 39061 ft | 467 kts | 215° |
| 2026-05-07 13:45 | 25.64688 | 120.41292 | 39060 ft | 467 kts | 216° |
| 2026-05-07 13:46 | 25.59335 | 120.37361 | 39061 ft | 459 kts | 223° |
| 2026-05-07 13:46 | 25.54209 | 120.33159 | 39061 ft | 458 kts | 224° |
| 2026-05-07 13:47 | 25.49121 | 120.28901 | 39061 ft | 459 kts | 224° |
| 2026-05-07 13:47 | 25.44054 | 120.24669 | 39058 ft | 459 kts | 223° |
| 2026-05-07 13:48 | 25.38940 | 120.20420 | 39058 ft | 460 kts | 223° |
| 2026-05-07 13:48 | 25.33822 | 120.16180 | 39057 ft | 459 kts | 223° |
| 2026-05-07 13:49 | 25.28700 | 120.11942 | 39050 ft | 460 kts | 223° |
| 2026-05-07 13:49 | 25.23571 | 120.07702 | 39058 ft | 461 kts | 223° |
| 2026-05-07 13:50 | 25.18438 | 120.03463 | 39055 ft | 460 kts | 223° |
| 2026-05-07 13:50 | 25.13302 | 119.99225 | 39058 ft | 460 kts | 223° |
| 2026-05-07 13:51 | 25.08169 | 119.94995 | 39060 ft | 460 kts | 223° |
| 2026-05-07 13:51 | 25.03035 | 119.90770 | 39057 ft | 460 kts | 223° |
| 2026-05-07 13:52 | 24.98395 | 119.86118 | 39055 ft | 447 kts | 233° |
| 2026-05-07 13:52 | 24.94254 | 119.80976 | 39059 ft | 449 kts | 235° |
| 2026-05-07 13:53 | 24.90203 | 119.75754 | 39057 ft | 448 kts | 236° |
| 2026-05-07 13:53 | 24.86162 | 119.70535 | 39055 ft | 448 kts | 235° |
| 2026-05-07 13:54 | 24.82126 | 119.65354 | 39062 ft | 449 kts | 235° |
| 2026-05-07 13:54 | 24.78048 | 119.60140 | 39061 ft | 450 kts | 235° |
| 2026-05-07 13:55 | 24.73961 | 119.54924 | 39055 ft | 450 kts | 235° |
| 2026-05-07 13:55 | 24.69876 | 119.49716 | 39055 ft | 449 kts | 235° |
| 2026-05-07 13:56 | 24.65791 | 119.44512 | 39060 ft | 449 kts | 235° |
| 2026-05-07 13:56 | 24.61711 | 119.39319 | 39052 ft | 450 kts | 235° |
| 2026-05-07 13:57 | 24.57615 | 119.34111 | 39049 ft | 451 kts | 235° |
| 2026-05-07 13:57 | 24.53507 | 119.28896 | 39069 ft | 451 kts | 235° |
| 2026-05-07 13:58 | 24.49426 | 119.23720 | 39057 ft | 451 kts | 235° |
| 2026-05-07 13:58 | 24.45320 | 119.18518 | 39062 ft | 450 kts | 235° |
| 2026-05-07 13:59 | 24.41212 | 119.13319 | 39043 ft | 451 kts | 235° |
| 2026-05-07 13:59 | 24.37096 | 119.08113 | 39063 ft | 452 kts | 235° |
| 2026-05-07 14:00 | 24.32971 | 119.02903 | 39063 ft | 452 kts | 235° |
| 2026-05-07 14:00 | 24.28838 | 118.97689 | 39062 ft | 452 kts | 235° |
| 2026-05-07 14:01 | 24.24712 | 118.92490 | 39059 ft | 452 kts | 235° |
| 2026-05-07 14:01 | 24.20590 | 118.87301 | 39054 ft | 451 kts | 235° |
| 2026-05-07 14:02 | 24.16489 | 118.82141 | 39053 ft | 452 kts | 235° |
| 2026-05-07 14:02 | 24.12352 | 118.76943 | 39051 ft | 453 kts | 235° |
| 2026-05-07 14:03 | 24.08213 | 118.71748 | 39053 ft | 453 kts | 235° |
| 2026-05-07 14:03 | 24.04070 | 118.66554 | 39053 ft | 452 kts | 235° |
| 2026-05-07 14:04 | 23.99937 | 118.61379 | 39059 ft | 451 kts | 235° |
| 2026-05-07 14:04 | 23.95810 | 118.56216 | 39054 ft | 451 kts | 235° |
| 2026-05-07 14:05 | 23.91704 | 118.51081 | 39058 ft | 452 kts | 235° |
| 2026-05-07 14:05 | 23.87564 | 118.45912 | 39058 ft | 452 kts | 235° |
| 2026-05-07 14:06 | 23.83406 | 118.40753 | 39055 ft | 452 kts | 234° |
| 2026-05-07 14:06 | 23.79229 | 118.35609 | 39061 ft | 452 kts | 234° |
| 2026-05-07 14:07 | 23.75065 | 118.30489 | 39046 ft | 450 kts | 234° |
| 2026-05-07 14:07 | 23.70902 | 118.25370 | 39056 ft | 451 kts | 234° |
| 2026-05-07 14:08 | 23.66733 | 118.20247 | 39056 ft | 451 kts | 234° |
| 2026-05-07 14:08 | 23.62563 | 118.15128 | 39057 ft | 451 kts | 234° |
| 2026-05-07 14:09 | 23.58410 | 118.10037 | 39058 ft | 451 kts | 234° |
| 2026-05-07 14:09 | 23.54234 | 118.04922 | 39061 ft | 451 kts | 234° |
| 2026-05-07 14:10 | 23.50064 | 117.99822 | 39056 ft | 450 kts | 234° |
| 2026-05-07 14:10 | 23.45896 | 117.94727 | 39057 ft | 450 kts | 234° |
| 2026-05-07 14:11 | 23.41723 | 117.89633 | 39059 ft | 450 kts | 234° |
| 2026-05-07 14:11 | 23.37574 | 117.84573 | 39060 ft | 450 kts | 234° |
| 2026-05-07 14:12 | 23.33401 | 117.79489 | 39059 ft | 450 kts | 234° |
| 2026-05-07 14:12 | 23.29225 | 117.74408 | 39045 ft | 451 kts | 234° |
| 2026-05-07 14:13 | 23.25024 | 117.69298 | 39057 ft | 454 kts | 234° |
| 2026-05-07 14:13 | 23.20809 | 117.64180 | 39057 ft | 455 kts | 234° |
| 2026-05-07 14:14 | 23.16585 | 117.59057 | 39060 ft | 454 kts | 234° |
| 2026-05-07 14:14 | 23.12362 | 117.53940 | 39059 ft | 454 kts | 234° |
| 2026-05-07 14:15 | 23.08146 | 117.48821 | 39057 ft | 454 kts | 234° |
| 2026-05-07 14:15 | 23.04006 | 117.43705 | 39056 ft | 454 kts | 234° |
| 2026-05-07 14:16 | 22.99841 | 117.38529 | 39057 ft | 455 kts | 234° |
| 2026-05-07 14:16 | 22.95670 | 117.33350 | 39057 ft | 455 kts | 234° |
| 2026-05-07 14:17 | 22.91776 | 117.27979 | 39062 ft | 452 kts | 239° |
| 2026-05-07 14:17 | 22.88055 | 117.22493 | 39062 ft | 451 kts | 239° |
| 2026-05-07 14:18 | 22.84382 | 117.17015 | 39061 ft | 451 kts | 239° |
| 2026-05-07 14:18 | 22.80698 | 117.11529 | 39056 ft | 449 kts | 239° |
| 2026-05-07 14:19 | 22.77023 | 117.06075 | 39058 ft | 448 kts | 239° |
| 2026-05-07 14:19 | 22.73634 | 117.00468 | 39056 ft | 440 kts | 249° |
| 2026-05-07 14:20 | 22.71182 | 116.94410 | 39059 ft | 438 kts | 252° |
| 2026-05-07 14:20 | 22.68927 | 116.88284 | 39059 ft | 438 kts | 253° |
| 2026-05-07 14:21 | 22.66703 | 116.82149 | 39062 ft | 438 kts | 252° |
| 2026-05-07 14:21 | 22.64458 | 116.76010 | 39060 ft | 438 kts | 252° |
| 2026-05-07 14:21 | 22.63329 | 116.72939 | 38895 ft | 440 kts | 252° |
| 2026-05-07 14:22 | 22.62203 | 116.69883 | 38658 ft | 443 kts | 252° |
| 2026-05-07 14:22 | 22.61055 | 116.66772 | 38399 ft | 446 kts | 252° |
| 2026-05-07 14:22 | 22.59897 | 116.63641 | 38132 ft | 448 kts | 252° |
| 2026-05-07 14:22 | 22.58738 | 116.60509 | 37870 ft | 449 kts | 252° |
| 2026-05-07 14:23 | 22.57575 | 116.57368 | 37607 ft | 450 kts | 252° |
| 2026-05-07 14:23 | 22.56408 | 116.54218 | 37341 ft | 452 kts | 251° |
| 2026-05-07 14:23 | 22.55233 | 116.51049 | 37096 ft | 454 kts | 251° |
| 2026-05-07 14:23 | 22.54054 | 116.47872 | 36859 ft | 456 kts | 251° |
| 2026-05-07 14:24 | 22.52886 | 116.44729 | 36603 ft | 457 kts | 251° |
| 2026-05-07 14:24 | 22.51696 | 116.41527 | 36354 ft | 459 kts | 251° |
| 2026-05-07 14:24 | 22.50505 | 116.38322 | 36117 ft | 460 kts | 251° |
| 2026-05-07 14:24 | 22.49308 | 116.35103 | 35871 ft | 461 kts | 251° |
| 2026-05-07 14:25 | 22.48109 | 116.31882 | 35632 ft | 462 kts | 251° |
| 2026-05-07 14:25 | 22.46904 | 116.28648 | 35405 ft | 464 kts | 251° |
| 2026-05-07 14:25 | 22.45697 | 116.25409 | 35178 ft | 465 kts | 251° |
| 2026-05-07 14:25 | 22.44484 | 116.22160 | 34888 ft | 464 kts | 251° |
| 2026-05-07 14:26 | 22.43278 | 116.18932 | 34306 ft | 464 kts | 250° |
| 2026-05-07 14:26 | 22.42067 | 116.15689 | 33545 ft | 467 kts | 250° |
| 2026-05-07 14:26 | 22.40845 | 116.12421 | 32777 ft | 469 kts | 250° |
| 2026-05-07 14:26 | 22.39636 | 116.09188 | 32037 ft | 471 kts | 250° |
| 2026-05-07 14:27 | 22.38403 | 116.05896 | 31273 ft | 473 kts | 250° |
| 2026-05-07 14:27 | 22.37164 | 116.02590 | 30469 ft | 476 kts | 250° |
| 2026-05-07 14:27 | 22.35918 | 115.99265 | 29570 ft | 479 kts | 250° |
| 2026-05-07 14:27 | 22.34667 | 115.95931 | 28882 ft | 477 kts | 250° |
| 2026-05-07 14:28 | 22.33424 | 115.92625 | 28350 ft | 470 kts | 250° |
| 2026-05-07 14:28 | 22.32196 | 115.89365 | 27788 ft | 465 kts | 250° |
| 2026-05-07 14:28 | 22.30987 | 115.86148 | 27234 ft | 460 kts | 251° |
| 2026-05-07 14:28 | 22.30307 | 115.83997 | 26881 ft | 455 kts | 256° |
| 2026-05-07 14:29 | 22.29621 | 115.79540 | 26180 ft | 446 kts | 266° |
| 2026-05-07 14:29 | 22.29461 | 115.77338 | 25831 ft | 443 kts | 268° |
| 2026-05-07 14:29 | 22.29274 | 115.72962 | 25138 ft | 438 kts | 269° |
| 2026-05-07 14:29 | 22.29195 | 115.69691 | 24618 ft | 434 kts | 270° |
| 2026-05-07 14:30 | 22.29134 | 115.66449 | 24117 ft | 430 kts | 270° |
| 2026-05-07 14:30 | 22.29072 | 115.63224 | 23602 ft | 427 kts | 269° |
| 2026-05-07 14:30 | 22.29027 | 115.61109 | 23214 ft | 425 kts | 269° |
| 2026-05-07 14:30 | 22.28954 | 115.57936 | 22674 ft | 420 kts | 269° |
| 2026-05-07 14:31 | 22.28874 | 115.54791 | 22169 ft | 415 kts | 269° |
| 2026-05-07 14:31 | 22.28791 | 115.51695 | 21663 ft | 410 kts | 269° |
| 2026-05-07 14:31 | 22.28706 | 115.48632 | 21157 ft | 406 kts | 269° |
| 2026-05-07 14:31 | 22.28619 | 115.45597 | 20663 ft | 402 kts | 269° |
| 2026-05-07 14:32 | 22.28533 | 115.42594 | 20164 ft | 399 kts | 268° |
| 2026-05-07 14:32 | 22.28448 | 115.39617 | 19668 ft | 395 kts | 268° |
| 2026-05-07 14:32 | 22.28363 | 115.36670 | 19299 ft | 389 kts | 268° |
| 2026-05-07 14:32 | 22.28278 | 115.33768 | 18858 ft | 385 kts | 268° |
| 2026-05-07 14:33 | 22.28191 | 115.30891 | 18379 ft | 383 kts | 268° |
| 2026-05-07 14:33 | 22.28103 | 115.28028 | 17873 ft | 380 kts | 268° |
| 2026-05-07 14:33 | 22.28016 | 115.25190 | 17376 ft | 376 kts | 268° |
| 2026-05-07 14:33 | 22.27929 | 115.22383 | 16902 ft | 373 kts | 268° |
| 2026-05-07 14:34 | 22.27844 | 115.19634 | 16434 ft | 369 kts | 268° |
| 2026-05-07 14:34 | 22.27758 | 115.16873 | 15968 ft | 366 kts | 268° |
| 2026-05-07 14:34 | 22.27672 | 115.14140 | 15498 ft | 363 kts | 268° |
| 2026-05-07 14:34 | 22.27587 | 115.11420 | 15034 ft | 361 kts | 268° |
| 2026-05-07 14:35 | 22.27502 | 115.08723 | 14575 ft | 359 kts | 268° |
| 2026-05-07 14:35 | 22.27416 | 115.06040 | 14113 ft | 357 kts | 268° |
| 2026-05-07 14:35 | 22.27331 | 115.03361 | 13633 ft | 356 kts | 268° |
| 2026-05-07 14:35 | 22.27245 | 115.00697 | 13134 ft | 353 kts | 268° |
| 2026-05-07 14:36 | 22.27160 | 114.98046 | 12667 ft | 351 kts | 268° |
| 2026-05-07 14:36 | 22.27076 | 114.95465 | 12339 ft | 344 kts | 268° |
| 2026-05-07 14:36 | 22.26994 | 114.92944 | 12246 ft | 328 kts | 268° |
| 2026-05-07 14:36 | 22.26915 | 114.90529 | 12141 ft | 316 kts | 267° |
| 2026-05-07 14:37 | 22.26838 | 114.88195 | 12005 ft | 306 kts | 267° |
| 2026-05-07 14:37 | 22.26686 | 114.83613 | 11391 ft | 306 kts | 267° |
| 2026-05-07 14:37 | 22.26605 | 114.81314 | 11067 ft | 310 kts | 266° |
| 2026-05-07 14:38 | 22.26251 | 114.78982 | 10843 ft | 320 kts | 252° |
| 2026-05-07 14:38 | 22.25195 | 114.76860 | 10679 ft | 324 kts | 232° |
| 2026-05-07 14:38 | 22.23650 | 114.75088 | 10528 ft | 324 kts | 225° |
| 2026-05-07 14:38 | 22.22011 | 114.73416 | 10386 ft | 324 kts | 224° |
| 2026-05-07 14:39 | 22.20383 | 114.71776 | 10241 ft | 313 kts | 224° |
| 2026-05-07 14:39 | 22.18825 | 114.70198 | 10099 ft | 302 kts | 224° |
| 2026-05-07 14:39 | 22.17323 | 114.68669 | 9921 ft | 292 kts | 225° |
| 2026-05-07 14:39 | 22.15868 | 114.67183 | 9766 ft | 285 kts | 225° |
| 2026-05-07 14:40 | 22.14448 | 114.65728 | 9638 ft | 285 kts | 225° |
| 2026-05-07 14:40 | 22.13009 | 114.64252 | 9502 ft | 285 kts | 225° |
| 2026-05-07 14:40 | 22.11573 | 114.62780 | 9352 ft | 285 kts | 225° |
| 2026-05-07 14:40 | 22.10135 | 114.61305 | 9217 ft | 284 kts | 225° |
| 2026-05-07 14:41 | 22.08696 | 114.59830 | 9072 ft | 285 kts | 224° |
| 2026-05-07 14:41 | 22.07265 | 114.58362 | 8931 ft | 284 kts | 224° |
| 2026-05-07 14:41 | 22.05831 | 114.56893 | 8793 ft | 284 kts | 224° |
| 2026-05-07 14:41 | 22.04401 | 114.55427 | 8601 ft | 283 kts | 224° |
| 2026-05-07 14:42 | 22.02990 | 114.53949 | 8368 ft | 282 kts | 229° |
| 2026-05-07 14:42 | 22.01893 | 114.52212 | 8126 ft | 280 kts | 244° |
| 2026-05-07 14:42 | 22.01098 | 114.50293 | 7878 ft | 280 kts | 248° |
| 2026-05-07 14:42 | 22.00365 | 114.48353 | 7645 ft | 279 kts | 248° |
| 2026-05-07 14:43 | 21.99646 | 114.46437 | 7401 ft | 279 kts | 248° |
| 2026-05-07 14:43 | 21.98916 | 114.44504 | 7174 ft | 278 kts | 248° |
| 2026-05-07 14:43 | 21.98184 | 114.42576 | 6934 ft | 277 kts | 248° |
| 2026-05-07 14:43 | 21.97453 | 114.40658 | 6709 ft | 277 kts | 248° |
| 2026-05-07 14:44 | 21.96720 | 114.38742 | 6473 ft | 276 kts | 248° |
| 2026-05-07 14:44 | 21.96247 | 114.37506 | 6323 ft | 275 kts | 248° |
| 2026-05-07 14:44 | 21.95891 | 114.36575 | 6206 ft | 275 kts | 248° |
| 2026-05-07 14:44 | 21.95183 | 114.34728 | 5956 ft | 275 kts | 248° |
| 2026-05-07 14:45 | 21.94454 | 114.32827 | 5716 ft | 274 kts | 248° |
| 2026-05-07 14:45 | 21.93725 | 114.30927 | 5469 ft | 274 kts | 248° |
| 2026-05-07 14:45 | 21.92999 | 114.29034 | 5224 ft | 273 kts | 248° |
| 2026-05-07 14:45 | 21.92272 | 114.27143 | 4991 ft | 273 kts | 248° |
| 2026-05-07 14:46 | 21.91552 | 114.25269 | 4840 ft | 272 kts | 248° |
| 2026-05-07 14:46 | 21.90836 | 114.23406 | 4724 ft | 272 kts | 248° |
| 2026-05-07 14:46 | 21.90124 | 114.21521 | 4595 ft | 272 kts | 250° |
| 2026-05-07 14:46 | 21.89744 | 114.19537 | 4468 ft | 271 kts | 269° |
| 2026-05-07 14:47 | 21.90117 | 114.17567 | 4346 ft | 270 kts | 292° |
| 2026-05-07 14:47 | 21.90963 | 114.15749 | 4215 ft | 271 kts | 298° |
| 2026-05-07 14:47 | 21.91892 | 114.13980 | 4104 ft | 271 kts | 299° |
| 2026-05-07 14:47 | 21.92826 | 114.12218 | 3981 ft | 271 kts | 299° |
| 2026-05-07 14:48 | 21.93753 | 114.10454 | 3856 ft | 271 kts | 299° |
| 2026-05-07 14:48 | 21.94675 | 114.08685 | 3735 ft | 270 kts | 298° |
| 2026-05-07 14:48 | 21.95593 | 114.06920 | 3625 ft | 270 kts | 298° |
| 2026-05-07 14:48 | 21.96508 | 114.05153 | 3513 ft | 269 kts | 298° |
| 2026-05-07 14:49 | 21.97420 | 114.03391 | 3409 ft | 270 kts | 298° |
| 2026-05-07 14:49 | 21.98320 | 114.01650 | 3286 ft | 261 kts | 298° |
| 2026-05-07 14:49 | 21.99189 | 113.99967 | 3157 ft | 252 kts | 298° |
| 2026-05-07 14:49 | 22.00026 | 113.98346 | 3025 ft | 244 kts | 298° |
| 2026-05-07 14:50 | 22.00833 | 113.96782 | 2982 ft | 235 kts | 298° |
| 2026-05-07 14:50 | 22.01627 | 113.95241 | 2985 ft | 235 kts | 298° |
| 2026-05-07 14:50 | 22.02410 | 113.93720 | 3002 ft | 235 kts | 298° |
| 2026-05-07 14:50 | 22.03205 | 113.92178 | 2979 ft | 235 kts | 298° |
| 2026-05-07 14:51 | 22.03999 | 113.90636 | 2979 ft | 235 kts | 298° |
| 2026-05-07 14:51 | 22.04795 | 113.89090 | 2993 ft | 236 kts | 298° |
| 2026-05-07 14:51 | 22.05590 | 113.87546 | 2977 ft | 236 kts | 298° |
| 2026-05-07 14:51 | 22.06385 | 113.86001 | 2988 ft | 235 kts | 298° |
| 2026-05-07 14:52 | 22.07177 | 113.84462 | 2993 ft | 235 kts | 298° |
| 2026-05-07 14:52 | 22.07956 | 113.82947 | 2993 ft | 224 kts | 298° |
| 2026-05-07 14:52 | 22.08691 | 113.81520 | 3003 ft | 214 kts | 298° |
| 2026-05-07 14:52 | 22.09411 | 113.80119 | 2998 ft | 214 kts | 298° |
| 2026-05-07 14:53 | 22.10134 | 113.78714 | 2996 ft | 215 kts | 298° |
| 2026-05-07 14:53 | 22.11083 | 113.77475 | 2942 ft | 216 kts | 322° |
| 2026-05-07 14:53 | 22.12362 | 113.76685 | 2835 ft | 206 kts | 334° |
| 2026-05-07 14:53 | 22.13640 | 113.76055 | 2684 ft | 196 kts | 335° |
| 2026-05-07 14:54 | 22.14864 | 113.75465 | 2517 ft | 196 kts | 335° |
| 2026-05-07 14:54 | 22.16105 | 113.74863 | 2399 ft | 195 kts | 334° |
| 2026-05-07 14:54 | 22.17342 | 113.74256 | 2276 ft | 196 kts | 334° |
| 2026-05-07 14:54 | 22.18580 | 113.73644 | 2151 ft | 196 kts | 334° |
| 2026-05-07 14:55 | 22.19821 | 113.73029 | 2025 ft | 196 kts | 335° |
| 2026-05-07 14:55 | 22.21128 | 113.72633 | 1897 ft | 197 kts | 358° |
| 2026-05-07 14:55 | 22.22421 | 113.73010 | 1729 ft | 194 kts | 29° |
| 2026-05-07 14:55 | 22.23572 | 113.73763 | 1689 ft | 194 kts | 34° |
| 2026-05-07 14:56 | 22.24698 | 113.74572 | 1690 ft | 196 kts | 35° |
| 2026-05-07 14:56 | 22.25824 | 113.75399 | 1661 ft | 194 kts | 39° |
| 2026-05-07 14:56 | 22.26651 | 113.76419 | 1594 ft | 170 kts | 62° |
| 2026-05-07 14:56 | 22.27116 | 113.77517 | 1589 ft | 156 kts | 71° |
| 2026-05-07 14:57 | 22.27476 | 113.78625 | 1593 ft | 157 kts | 73° |
| 2026-05-07 14:57 | 22.27834 | 113.79740 | 1597 ft | 158 kts | 72° |
| 2026-05-07 14:57 | 22.28197 | 113.80860 | 1593 ft | 158 kts | 72° |
| 2026-05-07 14:57 | 22.28563 | 113.81981 | 1536 ft | 155 kts | 71° |
| 2026-05-07 14:58 | 22.28910 | 113.83046 | 1336 ft | 146 kts | 73° |
| 2026-05-07 14:58 | 22.29237 | 113.84063 | 1155 ft | 142 kts | 73° |
| 2026-05-07 14:58 | 22.29548 | 113.85057 | 989 ft | 141 kts | 74° |
| 2026-05-07 14:58 | 22.29858 | 113.86057 | 815 ft | 139 kts | 71° |
| 2026-05-07 14:59 | 22.30197 | 113.87033 | 650 ft | 138 kts | 71° |
| 2026-05-07 14:59 | 22.30511 | 113.88010 | 461 ft | 136 kts | 72° |
| 2026-05-07 14:59 | 22.30814 | 113.88961 | 252 ft | 131 kts | 72° |
| 2026-05-07 14:59 | 22.31120 | 113.89883 | 100 ft | 130 kts | 72° |
| 2026-05-07 15:00 | 22.31406 | 113.90772 | 41 ft | 112 kts | 71° |
| 2026-05-07 15:00 | 22.31578 | 113.91294 | 39 ft | 42 kts | 70° |
| 2026-05-07 15:00 | 22.31646 | 113.91513 | 39 ft | 21 kts | 75° |
| 2026-05-07 15:00 | 22.31660 | 113.91633 | 39 ft | 13 kts | 89° |
| 2026-05-07 15:01 | 22.31650 | 113.91727 | 39 ft | 11 kts | 100° |
| 2026-05-07 15:01 | 22.31639 | 113.91796 | 39 ft | 9 kts | 100° |
| 2026-05-07 15:01 | 22.31626 | 113.91867 | 39 ft | 10 kts | 101° |
| 2026-05-07 15:01 | 22.31615 | 113.91944 | 39 ft | 10 kts | 92° |
| 2026-05-07 15:02 | 22.31599 | 113.92020 | 39 ft | 11 kts | 132° |
| 2026-05-07 15:02 | 22.31531 | 113.92054 | 39 ft | 11 kts | 161° |
| 2026-05-07 15:02 | 22.31451 | 113.92084 | 39 ft | 13 kts | 160° |
| 2026-05-07 15:02 | 22.31362 | 113.92118 | 39 ft | 14 kts | 161° |
| 2026-05-07 15:03 | 22.31262 | 113.92155 | 39 ft | 16 kts | 161° |
| 2026-05-07 15:03 | 22.31154 | 113.92195 | 39 ft | 17 kts | 160° |
| 2026-05-07 15:03 | 22.31037 | 113.92239 | 39 ft | 18 kts | 161° |
| 2026-05-07 15:03 | 22.30913 | 113.92286 | 39 ft | 19 kts | 160° |
| 2026-05-07 15:04 | 22.30825 | 113.92320 | 39 ft | 13 kts | 161° |
| 2026-05-07 15:04 | 22.30737 | 113.92353 | 39 ft | 14 kts | 160° |
| 2026-05-07 15:04 | 22.30653 | 113.92367 | 39 ft | 10 kts | 203° |
| 2026-05-07 15:04 | 22.30614 | 113.92304 | 39 ft | 11 kts | 246° |
| 2026-05-07 15:05 | 22.30588 | 113.92221 | 39 ft | 13 kts | 251° |
| 2026-05-07 15:05 | 22.30557 | 113.92125 | 39 ft | 14 kts | 251° |
| 2026-05-07 15:05 | 22.30522 | 113.92018 | 39 ft | 16 kts | 251° |
| 2026-05-07 15:05 | 22.30484 | 113.91899 | 39 ft | 18 kts | 251° |
| 2026-05-07 15:06 | 22.30441 | 113.91768 | 39 ft | 19 kts | 251° |
| 2026-05-07 15:06 | 22.30396 | 113.91627 | 39 ft | 21 kts | 251° |
| 2026-05-07 15:06 | 22.30365 | 113.91533 | 39 ft | 12 kts | 251° |
| 2026-05-07 15:06 | 22.30313 | 113.91490 | 39 ft | 10 kts | 176° |
| 2026-05-07 15:07 | 22.30241 | 113.91516 | 39 ft | 12 kts | 159° |
| 2026-05-07 15:07 | 22.30156 | 113.91549 | 39 ft | 14 kts | 161° |
| 2026-05-07 15:07 | 22.30068 | 113.91582 | 39 ft | 9 kts | 161° |
| 2026-05-07 15:07 | 22.30035 | 113.91629 | 39 ft | 8 kts | 94° |
| 2026-05-07 15:08 | 22.30030 | 113.91691 | 39 ft | 8 kts | 124° |
| 2026-05-07 15:08 | 22.29974 | 113.91721 | 39 ft | 12 kts | 160° |
| 2026-05-07 15:08 | 22.29886 | 113.91758 | 39 ft | 14 kts | 153° |
| 2026-05-07 15:08 | 22.29808 | 113.91804 | 39 ft | 12 kts | 156° |
| 2026-05-07 15:09 | 22.29746 | 113.91828 | 39 ft | 7 kts | 162° |
| 2026-05-07 15:09 | 22.29736 | 113.91831 | 39 ft | 4 kts | 162° |
| 2026-05-07 15:09 | 22.29707 | 113.91850 | 39 ft | 4 kts | 129° |
| 2026-05-07 15:09 | 22.29705 | 113.91879 | 39 ft | 4 kts | 83° |
| 2026-05-07 15:10 | 22.29712 | 113.91905 | 39 ft | 2 kts | 72° |
| 2026-05-07 15:10 | 22.29717 | 113.91921 | 39 ft | 2 kts | 71° |
| 2026-05-07 15:10 | 22.29719 | 113.91929 | 39 ft | 1 kts | 71° |
| 2026-05-07 15:10 | 22.29720 | 113.91931 | 39 ft | 0 kts | 71° |